sensor_id;sensor_type;location;lat;lon;timestamp;pressure;altitude;pressure_sealevel;temperature;humidity
7986;BME280;4038;42.612;23.066;2023-04-30T05:53:05;92796.59;;;30.38;23.74
7986;BME280;4038;42.612;23.066;2023-04-30T05:55:30;92798.50;;;29.22;25.02
7986;BME280;4038;42.612;23.066;2023-04-30T05:57:56;92809.09;;;30.62;23.69
7986;BME280;4038;42.612;23.066;2023-04-30T06:00:21;92814.16;;;30.21;24.01
7986;BME280;4038;42.612;23.066;2023-04-30T06:02:47;92803.53;;;31.25;22.80
7986;BME280;4038;42.612;23.066;2023-04-30T06:05:12;92810.72;;;30.97;23.70
7986;BME280;4038;42.612;23.066;2023-04-30T06:07:37;92811.47;;;30.39;23.93
7986;BME280;4038;42.612;23.066;2023-04-30T06:10:03;92818.69;;;31.16;23.33
7986;BME280;4038;42.612;23.066;2023-04-30T06:12:29;92822.78;;;32.25;22.39
7986;BME280;4038;42.612;23.066;2023-04-30T06:14:55;92820.41;;;30.62;23.77
7986;BME280;4038;42.612;23.066;2023-04-30T06:17:21;92828.13;;;29.76;24.97
7986;BME280;4038;42.612;23.066;2023-04-30T06:19:46;92821.38;;;30.24;24.76
7986;BME280;4038;42.612;23.066;2023-04-30T06:22:12;92821.56;;;30.28;24.43
7986;BME280;4038;42.612;23.066;2023-04-30T06:24:37;92813.78;;;31.32;23.44
7986;BME280;4038;42.612;23.066;2023-04-30T06:27:03;92822.00;;;32.76;22.03
7986;BME280;4038;42.612;23.066;2023-04-30T06:29:28;92819.59;;;34.85;19.94
7986;BME280;4038;42.612;23.066;2023-04-30T06:31:54;92824.66;;;34.67;19.93
7986;BME280;4038;42.612;23.066;2023-04-30T06:34:20;92820.41;;;40.15;16.20
7986;BME280;4038;42.612;23.066;2023-04-30T06:36:45;92820.28;;;39.00;16.58
7986;BME280;4038;42.612;23.066;2023-04-30T06:39:14;92819.13;;;39.20;16.46
7986;BME280;4038;42.612;23.066;2023-04-30T06:41:39;92821.31;;;38.37;17.17
7986;BME280;4038;42.612;23.066;2023-04-30T06:44:05;92827.94;;;36.52;18.36
7986;BME280;4038;42.612;23.066;2023-04-30T06:46:30;92818.38;;;34.71;20.03
7986;BME280;4038;42.612;23.066;2023-04-30T06:48:56;92820.44;;;34.05;20.91
7986;BME280;4038;42.612;23.066;2023-04-30T06:51:21;92826.31;;;35.91;19.15
7986;BME280;4038;42.612;23.066;2023-04-30T06:53:47;92823.38;;;36.69;18.38
7986;BME280;4038;42.612;23.066;2023-04-30T06:56:12;92826.38;;;35.44;19.60
7986;BME280;4038;42.612;23.066;2023-04-30T06:58:37;92819.03;;;35.37;19.19
7986;BME280;4038;42.612;23.066;2023-04-30T07:01:03;92822.47;;;35.57;18.89
7986;BME280;4038;42.612;23.066;2023-04-30T07:03:28;92825.81;;;34.17;19.84
7986;BME280;4038;42.612;23.066;2023-04-30T07:05:54;92821.75;;;34.02;20.42
7986;BME280;4038;42.612;23.066;2023-04-30T07:08:20;92822.97;;;33.38;20.72
7986;BME280;4038;42.612;23.066;2023-04-30T07:10:46;92820.91;;;33.78;20.57
7986;BME280;4038;42.612;23.066;2023-04-30T07:13:11;92825.53;;;34.94;19.43
7986;BME280;4038;42.612;23.066;2023-04-30T07:15:37;92826.91;;;33.11;20.66
7986;BME280;4038;42.612;23.066;2023-04-30T07:18:02;92826.72;;;33.82;19.88
7986;BME280;4038;42.612;23.066;2023-04-30T07:20:29;92831.03;;;32.70;20.93
7986;BME280;4038;42.612;23.066;2023-04-30T07:22:54;92825.47;;;32.39;21.28
7986;BME280;4038;42.612;23.066;2023-04-30T07:25:20;92826.31;;;33.32;20.52
7986;BME280;4038;42.612;23.066;2023-04-30T07:27:45;92823.75;;;33.03;20.89
7986;BME280;4038;42.612;23.066;2023-04-30T07:30:11;92831.81;;;32.73;21.08
7986;BME280;4038;42.612;23.066;2023-04-30T07:32:37;92831.69;;;31.68;22.63
7986;BME280;4038;42.612;23.066;2023-04-30T07:35:05;92838.50;;;33.54;20.65
7986;BME280;4038;42.612;23.066;2023-04-30T07:37:30;92839.91;;;32.63;21.58
7986;BME280;4038;42.612;23.066;2023-04-30T07:39:56;92838.81;;;33.62;20.95
7986;BME280;4038;42.612;23.066;2023-04-30T07:42:21;92843.28;;;32.24;21.74
7986;BME280;4038;42.612;23.066;2023-04-30T07:44:47;92841.56;;;31.67;22.32
7986;BME280;4038;42.612;23.066;2023-04-30T07:47:13;92846.75;;;31.10;23.06
7986;BME280;4038;42.612;23.066;2023-04-30T07:49:39;92846.47;;;30.75;23.00
7986;BME280;4038;42.612;23.066;2023-04-30T07:52:04;92844.59;;;30.36;23.60
7986;BME280;4038;42.612;23.066;2023-04-30T07:54:30;92841.69;;;31.87;22.44
7986;BME280;4038;42.612;23.066;2023-04-30T07:56:55;92841.09;;;30.51;23.48
7986;BME280;4038;42.612;23.066;2023-04-30T07:59:21;92851.38;;;31.03;23.06
7986;BME280;4038;42.612;23.066;2023-04-30T08:01:49;92848.66;;;30.33;23.65
7986;BME280;4038;42.612;23.066;2023-04-30T08:04:15;92850.59;;;30.87;22.98
7986;BME280;4038;42.612;23.066;2023-04-30T08:06:40;92849.03;;;30.12;23.88
7986;BME280;4038;42.612;23.066;2023-04-30T08:09:06;92850.56;;;32.29;21.79
7986;BME280;4038;42.612;23.066;2023-04-30T08:11:31;92849.22;;;31.33;22.16
7986;BME280;4038;42.612;23.066;2023-04-30T08:13:57;92856.38;;;29.62;24.21
7986;BME280;4038;42.612;23.066;2023-04-30T08:16:22;92855.00;;;32.16;21.84
7986;BME280;4038;42.612;23.066;2023-04-30T08:18:47;92863.22;;;32.26;22.04
7986;BME280;4038;42.612;23.066;2023-04-30T08:21:14;92852.84;;;33.58;20.67
7986;BME280;4038;42.612;23.066;2023-04-30T08:23:43;92848.72;;;35.53;19.25
7986;BME280;4038;42.612;23.066;2023-04-30T08:26:08;92856.53;;;33.06;21.40
7986;BME280;4038;42.612;23.066;2023-04-30T08:28:34;92855.63;;;34.16;20.61
7986;BME280;4038;42.612;23.066;2023-04-30T08:30:59;92851.66;;;34.03;20.21
7986;BME280;4038;42.612;23.066;2023-04-30T08:33:25;92852.63;;;34.73;19.24
7986;BME280;4038;42.612;23.066;2023-04-30T08:35:50;92849.44;;;34.21;20.26
7986;BME280;4038;42.612;23.066;2023-04-30T08:38:16;92843.47;;;34.98;20.44
7986;BME280;4038;42.612;23.066;2023-04-30T08:40:47;92840.88;;;35.06;19.82
7986;BME280;4038;42.612;23.066;2023-04-30T08:43:17;92840.44;;;35.16;19.44
7986;BME280;4038;42.612;23.066;2023-04-30T08:45:43;92840.06;;;35.26;19.26
7986;BME280;4038;42.612;23.066;2023-04-30T08:48:09;92840.91;;;35.30;19.42
7986;BME280;4038;42.612;23.066;2023-04-30T08:50:39;92839.44;;;35.77;18.98
7986;BME280;4038;42.612;23.066;2023-04-30T08:53:06;92837.19;;;34.80;19.48
7986;BME280;4038;42.612;23.066;2023-04-30T08:55:33;92831.03;;;37.20;17.70
7986;BME280;4038;42.612;23.066;2023-04-30T08:57:58;92837.72;;;34.11;19.77
7986;BME280;4038;42.612;23.066;2023-04-30T09:00:24;92825.47;;;33.87;20.03
7986;BME280;4038;42.612;23.066;2023-04-30T09:02:51;92828.91;;;33.63;20.49
7986;BME280;4038;42.612;23.066;2023-04-30T09:05:16;92830.44;;;34.06;20.54
7986;BME280;4038;42.612;23.066;2023-04-30T09:07:43;92815.72;;;37.37;18.17
7986;BME280;4038;42.612;23.066;2023-04-30T09:10:19;92823.00;;;36.83;18.62
7986;BME280;4038;42.612;23.066;2023-04-30T09:13:18;92818.25;;;35.60;19.25
7986;BME280;4038;42.612;23.066;2023-04-30T09:15:43;92810.06;;;34.77;19.61
7986;BME280;4038;42.612;23.066;2023-04-30T09:18:17;92814.03;;;37.26;17.84
7986;BME280;4038;42.612;23.066;2023-04-30T09:21:00;92814.97;;;38.05;17.31
7986;BME280;4038;42.612;23.066;2023-04-30T09:23:28;92803.75;;;34.80;19.55
7986;BME280;4038;42.612;23.066;2023-04-30T09:25:53;92809.31;;;32.43;21.88
7986;BME280;4038;42.612;23.066;2023-04-30T09:28:19;92801.75;;;32.14;22.11
7986;BME280;4038;42.612;23.066;2023-04-30T09:30:49;92806.00;;;32.49;21.72
7986;BME280;4038;42.612;23.066;2023-04-30T09:33:15;92798.41;;;31.06;22.86
7986;BME280;4038;42.612;23.066;2023-04-30T09:35:40;92802.94;;;33.33;20.70
7986;BME280;4038;42.612;23.066;2023-04-30T09:38:06;92800.81;;;32.43;21.55
7986;BME280;4038;42.612;23.066;2023-04-30T09:40:36;92801.41;;;33.70;20.67
7986;BME280;4038;42.612;23.066;2023-04-30T09:43:02;92796.19;;;32.34;21.79
7986;BME280;4038;42.612;23.066;2023-04-30T09:45:47;92798.28;;;33.05;20.95
7986;BME280;4038;42.612;23.066;2023-04-30T09:48:26;92801.31;;;33.28;20.60
7986;BME280;4038;42.612;23.066;2023-04-30T09:50:55;92804.50;;;33.76;19.94
7986;BME280;4038;42.612;23.066;2023-04-30T09:53:21;92795.25;;;33.76;20.05
7986;BME280;4038;42.612;23.066;2023-04-30T09:55:49;92781.31;;;35.14;19.29
7986;BME280;4038;42.612;23.066;2023-04-30T09:58:17;92793.91;;;37.90;17.40
7986;BME280;4038;42.612;23.066;2023-04-30T10:00:44;92777.38;;;37.50;17.18
7986;BME280;4038;42.612;23.066;2023-04-30T10:03:12;92779.03;;;37.98;16.95
7986;BME280;4038;42.612;23.066;2023-04-30T10:05:40;92770.66;;;35.65;18.29
7986;BME280;4038;42.612;23.066;2023-04-30T10:08:20;92777.53;;;38.73;16.13
7986;BME280;4038;42.612;23.066;2023-04-30T10:10:58;92769.00;;;36.95;17.50
7986;BME280;4038;42.612;23.066;2023-04-30T10:13:32;92777.91;;;36.21;17.81
7986;BME280;4038;42.612;23.066;2023-04-30T10:16:11;92778.06;;;35.50;18.67
7986;BME280;4038;42.612;23.066;2023-04-30T10:18:44;92782.34;;;34.14;19.81
7986;BME280;4038;42.612;23.066;2023-04-30T10:21:11;92784.66;;;34.20;21.14
7986;BME280;4038;42.612;23.066;2023-04-30T10:23:38;92785.66;;;32.72;22.08
7986;BME280;4038;42.612;23.066;2023-04-30T10:26:07;92775.53;;;32.32;22.47
7986;BME280;4038;42.612;23.066;2023-04-30T10:28:33;92778.91;;;32.28;21.83
7986;BME280;4038;42.612;23.066;2023-04-30T10:30:59;92789.06;;;33.24;20.58
7986;BME280;4038;42.612;23.066;2023-04-30T10:33:30;92775.78;;;32.55;21.12
7986;BME280;4038;42.612;23.066;2023-04-30T10:35:59;92766.34;;;31.82;21.32
7986;BME280;4038;42.612;23.066;2023-04-30T10:38:28;92775.16;;;31.72;22.39
7986;BME280;4038;42.612;23.066;2023-04-30T10:41:05;92778.19;;;30.82;23.61
7986;BME280;4038;42.612;23.066;2023-04-30T10:43:33;92772.34;;;29.63;24.54
7986;BME280;4038;42.612;23.066;2023-04-30T10:46:03;92783.59;;;31.55;22.70
7986;BME280;4038;42.612;23.066;2023-04-30T10:48:32;92775.41;;;34.84;19.72
7986;BME280;4038;42.612;23.066;2023-04-30T10:50:59;92767.72;;;34.67;20.48
7986;BME280;4038;42.612;23.066;2023-04-30T10:53:25;92764.94;;;34.69;20.02
7986;BME280;4038;42.612;23.066;2023-04-30T10:58:32;92760.16;;;35.21;18.96
7986;BME280;4038;42.612;23.066;2023-04-30T11:01:08;92751.34;;;36.17;18.18
7986;BME280;4038;42.612;23.066;2023-04-30T11:03:36;92750.53;;;34.41;19.04
7986;BME280;4038;42.612;23.066;2023-04-30T11:08:38;92761.09;;;34.82;18.96
7986;BME280;4038;42.612;23.066;2023-04-30T11:11:08;92756.09;;;34.37;19.25
7986;BME280;4038;42.612;23.066;2023-04-30T11:13:40;92751.31;;;36.15;18.08
7986;BME280;4038;42.612;23.066;2023-04-30T11:16:08;92748.34;;;35.57;18.33
7986;BME280;4038;42.612;23.066;2023-04-30T11:18:35;92750.53;;;34.20;18.82
7986;BME280;4038;42.612;23.066;2023-04-30T11:21:08;92757.97;;;35.44;17.55
7986;BME280;4038;42.612;23.066;2023-04-30T11:23:34;92751.56;;;34.74;17.76
7986;BME280;4038;42.612;23.066;2023-04-30T11:26:00;92750.69;;;34.91;18.13
7986;BME280;4038;42.612;23.066;2023-04-30T11:28:27;92754.06;;;36.66;17.27
7986;BME280;4038;42.612;23.066;2023-04-30T11:31:01;92748.69;;;34.28;18.50
7986;BME280;4038;42.612;23.066;2023-04-30T11:33:33;92739.66;;;36.62;16.83
7986;BME280;4038;42.612;23.066;2023-04-30T11:36:00;92745.53;;;35.59;17.20
7986;BME280;4038;42.612;23.066;2023-04-30T11:38:29;92747.28;;;37.47;16.26
7986;BME280;4038;42.612;23.066;2023-04-30T11:40:56;92741.34;;;35.36;16.77
7986;BME280;4038;42.612;23.066;2023-04-30T11:43:26;92738.50;;;34.67;17.86
7986;BME280;4038;42.612;23.066;2023-04-30T11:46:14;92736.72;;;35.75;16.84
7986;BME280;4038;42.612;23.066;2023-04-30T11:48:43;92736.75;;;35.01;17.76
7986;BME280;4038;42.612;23.066;2023-04-30T11:51:20;92742.44;;;35.01;17.75
7986;BME280;4038;42.612;23.066;2023-04-30T11:53:47;92737.31;;;33.08;19.71
7986;BME280;4038;42.612;23.066;2023-04-30T11:56:23;92734.47;;;32.35;20.52
7986;BME280;4038;42.612;23.066;2023-04-30T11:58:51;92727.59;;;32.04;20.92
7986;BME280;4038;42.612;23.066;2023-04-30T12:01:17;92729.63;;;33.30;19.13
7986;BME280;4038;42.612;23.066;2023-04-30T12:03:48;92743.53;;;35.63;17.87
7986;BME280;4038;42.612;23.066;2023-04-30T12:06:21;92725.97;;;36.27;17.07
7986;BME280;4038;42.612;23.066;2023-04-30T12:08:47;92726.03;;;32.72;19.32
7986;BME280;4038;42.612;23.066;2023-04-30T12:13:57;92720.94;;;34.07;18.27
7986;BME280;4038;42.612;23.066;2023-04-30T12:16:27;92734.53;;;33.89;19.00
7986;BME280;4038;42.612;23.066;2023-04-30T12:18:52;92731.78;;;31.36;20.29
7986;BME280;4038;42.612;23.066;2023-04-30T12:21:19;92733.75;;;34.08;18.43
7986;BME280;4038;42.612;23.066;2023-04-30T12:23:45;92724.34;;;34.69;18.12
7986;BME280;4038;42.612;23.066;2023-04-30T12:26:10;92717.06;;;32.42;19.64
7986;BME280;4038;42.612;23.066;2023-04-30T12:28:36;92715.97;;;33.86;18.72
7986;BME280;4038;42.612;23.066;2023-04-30T12:31:03;92720.31;;;32.70;19.54
7986;BME280;4038;42.612;23.066;2023-04-30T12:33:31;92719.81;;;32.76;19.50
7986;BME280;4038;42.612;23.066;2023-04-30T12:35:56;92724.72;;;33.52;18.90
7986;BME280;4038;42.612;23.066;2023-04-30T12:38:24;92721.09;;;34.33;18.34
7986;BME280;4038;42.612;23.066;2023-04-30T12:40:50;92720.47;;;31.70;20.70
7986;BME280;4038;42.612;23.066;2023-04-30T12:43:16;92725.66;;;33.59;18.81
7986;BME280;4038;42.612;23.066;2023-04-30T12:45:53;92723.63;;;35.40;17.38
7986;BME280;4038;42.612;23.066;2023-04-30T12:48:23;92716.06;;;34.31;18.21
7986;BME280;4038;42.612;23.066;2023-04-30T12:53:17;92725.22;;;33.07;19.35
7986;BME280;4038;42.612;23.066;2023-04-30T12:56:13;92730.44;;;35.29;17.44
7986;BME280;4038;42.612;23.066;2023-04-30T12:58:40;92743.75;;;35.46;17.09
7986;BME280;4038;42.612;23.066;2023-04-30T13:01:16;92736.47;;;38.16;15.30
7986;BME280;4038;42.612;23.066;2023-04-30T13:03:42;92730.22;;;34.07;19.34
7986;BME280;4038;42.612;23.066;2023-04-30T13:06:07;92730.78;;;33.23;20.93
7986;BME280;4038;42.612;23.066;2023-04-30T13:08:34;92725.53;;;31.89;22.30
7986;BME280;4038;42.612;23.066;2023-04-30T13:10:59;92726.06;;;33.49;21.04
7986;BME280;4038;42.612;23.066;2023-04-30T13:13:25;92736.09;;;32.04;22.36
7986;BME280;4038;42.612;23.066;2023-04-30T13:15:50;92726.50;;;34.46;20.40
7986;BME280;4038;42.612;23.066;2023-04-30T13:18:16;92727.66;;;33.74;21.07
7986;BME280;4038;42.612;23.066;2023-04-30T13:20:41;92720.25;;;34.74;20.05
7986;BME280;4038;42.612;23.066;2023-04-30T13:23:08;92718.28;;;32.55;21.87
7986;BME280;4038;42.612;23.066;2023-04-30T13:25:34;92715.03;;;33.79;20.94
7986;BME280;4038;42.612;23.066;2023-04-30T13:28:00;92717.91;;;35.40;19.49
7986;BME280;4038;42.612;23.066;2023-04-30T13:30:26;92710.41;;;32.36;21.73
7986;BME280;4038;42.612;23.066;2023-04-30T13:32:51;92705.88;;;34.24;20.06
7986;BME280;4038;42.612;23.066;2023-04-30T13:35:18;92717.31;;;34.26;20.60
7986;BME280;4038;42.612;23.066;2023-04-30T13:37:44;92706.47;;;36.47;18.22
7986;BME280;4038;42.612;23.066;2023-04-30T13:40:10;92712.59;;;36.95;17.85
7986;BME280;4038;42.612;23.066;2023-04-30T13:42:37;92721.75;;;37.22;17.65
7986;BME280;4038;42.612;23.066;2023-04-30T13:45:05;92700.69;;;35.61;18.78
7986;BME280;4038;42.612;23.066;2023-04-30T13:47:30;92707.41;;;36.88;17.41
7986;BME280;4038;42.612;23.066;2023-04-30T13:49:56;92698.50;;;35.60;18.45
7986;BME280;4038;42.612;23.066;2023-04-30T13:52:22;92701.81;;;35.76;18.65
7986;BME280;4038;42.612;23.066;2023-04-30T13:54:48;92700.88;;;36.53;17.42
7986;BME280;4038;42.612;23.066;2023-04-30T13:57:13;92693.75;;;38.74;16.02
7986;BME280;4038;42.612;23.066;2023-04-30T13:59:39;92688.47;;;36.70;17.13
7986;BME280;4038;42.612;23.066;2023-04-30T14:02:05;92689.66;;;36.31;18.28
7986;BME280;4038;42.612;23.066;2023-04-30T14:04:30;92690.75;;;37.44;16.17
7986;BME280;4038;42.612;23.066;2023-04-30T14:06:56;92684.25;;;35.60;17.13
7986;BME280;4038;42.612;23.066;2023-04-30T14:09:21;92694.59;;;37.23;15.95
7986;BME280;4038;42.612;23.066;2023-04-30T14:11:47;92694.69;;;36.31;16.72
7986;BME280;4038;42.612;23.066;2023-04-30T14:14:13;92686.75;;;34.96;17.29
7986;BME280;4038;42.612;23.066;2023-04-30T14:16:42;92692.09;;;37.41;16.16
7986;BME280;4038;42.612;23.066;2023-04-30T14:19:08;92687.34;;;33.01;18.84
7986;BME280;4038;42.612;23.066;2023-04-30T14:21:33;92688.66;;;33.98;18.43
7986;BME280;4038;42.612;23.066;2023-04-30T14:23:59;92679.25;;;35.33;17.40
7986;BME280;4038;42.612;23.066;2023-04-30T14:26:24;92683.56;;;34.38;18.02
7986;BME280;4038;42.612;23.066;2023-04-30T14:28:50;92686.66;;;34.46;18.12
7986;BME280;4038;42.612;23.066;2023-04-30T14:31:16;92679.19;;;34.59;17.62
7986;BME280;4038;42.612;23.066;2023-04-30T14:33:41;92674.59;;;32.64;18.84
7986;BME280;4038;42.612;23.066;2023-04-30T14:36:07;92674.53;;;32.25;19.32
7986;BME280;4038;42.612;23.066;2023-04-30T14:38:33;92677.34;;;33.79;18.26
7986;BME280;4038;42.612;23.066;2023-04-30T14:40:58;92667.88;;;36.16;16.83
7986;BME280;4038;42.612;23.066;2023-04-30T14:43:24;92669.16;;;36.09;17.05
7986;BME280;4038;42.612;23.066;2023-04-30T14:45:50;92675.75;;;37.09;16.54
7986;BME280;4038;42.612;23.066;2023-04-30T14:48:16;92682.25;;;33.98;18.02
7986;BME280;4038;42.612;23.066;2023-04-30T14:50:43;92685.84;;;36.21;16.73
7986;BME280;4038;42.612;23.066;2023-04-30T14:53:08;92688.25;;;33.86;18.16
7986;BME280;4038;42.612;23.066;2023-04-30T14:55:36;92691.69;;;33.41;18.90
7986;BME280;4038;42.612;23.066;2023-04-30T14:58:01;92680.97;;;33.40;18.87
7986;BME280;4038;42.612;23.066;2023-04-30T15:00:27;92682.25;;;33.17;19.11
7986;BME280;4038;42.612;23.066;2023-04-30T15:02:53;92688.53;;;33.33;19.09
7986;BME280;4038;42.612;23.066;2023-04-30T15:05:18;92690.03;;;32.59;19.64
7986;BME280;4038;42.612;23.066;2023-04-30T15:07:43;92688.53;;;33.13;19.26
7986;BME280;4038;42.612;23.066;2023-04-30T15:10:09;92683.94;;;33.04;19.58
7986;BME280;4038;42.612;23.066;2023-04-30T15:12:35;92697.34;;;34.24;18.65
7986;BME280;4038;42.612;23.066;2023-04-30T15:15:03;92689.91;;;33.72;19.34
7986;BME280;4038;42.612;23.066;2023-04-30T15:17:29;92701.69;;;32.67;20.22
7986;BME280;4038;42.612;23.066;2023-04-30T15:19:56;92698.13;;;33.04;19.78
7986;BME280;4038;42.612;23.066;2023-04-30T15:22:26;92690.63;;;33.94;18.79
7986;BME280;4038;42.612;23.066;2023-04-30T15:24:52;92697.84;;;33.55;19.38
7986;BME280;4038;42.612;23.066;2023-04-30T15:27:17;92705.09;;;32.26;20.08
7986;BME280;4038;42.612;23.066;2023-04-30T15:29:43;92707.16;;;31.57;20.87
7986;BME280;4038;42.612;23.066;2023-04-30T15:32:11;92703.31;;;30.54;21.86
7986;BME280;4038;42.612;23.066;2023-04-30T15:34:36;92715.00;;;31.25;21.10
7986;BME280;4038;42.612;23.066;2023-04-30T15:37:01;92721.66;;;31.31;21.03
7986;BME280;4038;42.612;23.066;2023-04-30T15:39:27;92716.16;;;32.02;20.19
7986;BME280;4038;42.612;23.066;2023-04-30T15:41:53;92712.22;;;31.42;20.80
7986;BME280;4038;42.612;23.066;2023-04-30T15:44:18;92711.09;;;31.65;20.69
7986;BME280;4038;42.612;23.066;2023-04-30T15:46:43;92720.31;;;33.47;19.13
7986;BME280;4038;42.612;23.066;2023-04-30T15:49:09;92712.50;;;32.53;20.14
7986;BME280;4038;42.612;23.066;2023-04-30T15:51:34;92719.59;;;33.27;19.55
7986;BME280;4038;42.612;23.066;2023-04-30T15:54:01;92711.28;;;33.33;19.54
7986;BME280;4038;42.612;23.066;2023-04-30T15:56:27;92710.69;;;33.37;19.83
7986;BME280;4038;42.612;23.066;2023-04-30T15:58:53;92711.94;;;33.93;19.26
7986;BME280;4038;42.612;23.066;2023-04-30T16:01:18;92714.34;;;34.68;18.62
7986;BME280;4038;42.612;23.066;2023-04-30T16:03:44;92702.94;;;33.19;19.83
7986;BME280;4038;42.612;23.066;2023-04-30T16:06:10;92701.81;;;33.88;19.13
7986;BME280;4038;42.612;23.066;2023-04-30T16:08:36;92702.88;;;34.20;19.22
7986;BME280;4038;42.612;23.066;2023-04-30T16:11:01;92701.09;;;35.00;18.11
7986;BME280;4038;42.612;23.066;2023-04-30T16:13:28;92690.22;;;33.82;19.19
7986;BME280;4038;42.612;23.066;2023-04-30T16:15:53;92705.72;;;33.77;19.22
7986;BME280;4038;42.612;23.066;2023-04-30T16:18:19;92705.03;;;34.89;18.16
7986;BME280;4038;42.612;23.066;2023-04-30T16:20:46;92696.41;;;36.44;16.84
7986;BME280;4038;42.612;23.066;2023-04-30T16:23:13;92702.69;;;35.05;17.97
7986;BME280;4038;42.612;23.066;2023-04-30T16:25:38;92711.19;;;33.51;19.03
7986;BME280;4038;42.612;23.066;2023-04-30T16:28:03;92712.53;;;33.28;19.22
7986;BME280;4038;42.612;23.066;2023-04-30T16:30:29;92707.81;;;33.76;18.72
7986;BME280;4038;42.612;23.066;2023-04-30T16:32:54;92701.84;;;34.77;18.04
7986;BME280;4038;42.612;23.066;2023-04-30T16:35:20;92706.19;;;34.80;17.98
7986;BME280;4038;42.612;23.066;2023-04-30T16:37:45;92703.69;;;34.23;18.43
7986;BME280;4038;42.612;23.066;2023-04-30T16:40:11;92718.47;;;32.79;19.67
7986;BME280;4038;42.612;23.066;2023-04-30T16:42:36;92711.44;;;32.80;19.79
7986;BME280;4038;42.612;23.066;2023-04-30T16:45:02;92724.97;;;33.39;19.60
7986;BME280;4038;42.612;23.066;2023-04-30T16:47:28;92719.72;;;32.56;20.09
7986;BME280;4038;42.612;23.066;2023-04-30T16:49:57;92728.13;;;33.27;19.16
7986;BME280;4038;42.612;23.066;2023-04-30T16:52:22;92727.41;;;32.71;19.84
7986;BME280;4038;42.612;23.066;2023-04-30T16:54:48;92731.97;;;30.78;21.38
7986;BME280;4038;42.612;23.066;2023-04-30T16:57:13;92729.31;;;32.47;19.91
7986;BME280;4038;42.612;23.066;2023-04-30T16:59:39;92741.50;;;30.69;21.41
7986;BME280;4038;42.612;23.066;2023-04-30T17:02:04;92733.31;;;31.89;20.34
7986;BME280;4038;42.612;23.066;2023-04-30T17:04:30;92745.94;;;31.52;20.83
7986;BME280;4038;42.612;23.066;2023-04-30T17:06:57;92736.16;;;32.06;20.06
7986;BME280;4038;42.612;23.066;2023-04-30T17:09:23;92739.97;;;32.66;19.69
7986;BME280;4038;42.612;23.066;2023-04-30T17:11:49;92745.84;;;32.35;19.98
7986;BME280;4038;42.612;23.066;2023-04-30T17:14:14;92741.34;;;32.65;20.04
7986;BME280;4038;42.612;23.066;2023-04-30T17:16:40;92752.34;;;33.30;19.14
7986;BME280;4038;42.612;23.066;2023-04-30T17:19:05;92763.22;;;34.60;18.36
7986;BME280;4038;42.612;23.066;2023-04-30T17:21:32;92752.19;;;35.68;17.33
7986;BME280;4038;42.612;23.066;2023-04-30T17:23:58;92757.84;;;37.07;16.18
7986;BME280;4038;42.612;23.066;2023-04-30T17:26:23;92758.72;;;37.13;16.14
7986;BME280;4038;42.612;23.066;2023-04-30T17:28:49;92759.06;;;36.98;16.41
7986;BME280;4038;42.612;23.066;2023-04-30T17:31:14;92767.13;;;37.07;16.37
7986;BME280;4038;42.612;23.066;2023-04-30T17:33:40;92763.28;;;36.95;16.43
7986;BME280;4038;42.612;23.066;2023-04-30T17:36:06;92768.31;;;36.11;17.08
7986;BME280;4038;42.612;23.066;2023-04-30T17:38:33;92775.16;;;35.48;17.63
7986;BME280;4038;42.612;23.066;2023-04-30T17:40:58;92783.44;;;35.63;17.65
7986;BME280;4038;42.612;23.066;2023-04-30T17:43:24;92778.03;;;35.99;17.20
7986;BME280;4038;42.612;23.066;2023-04-30T17:45:50;92780.88;;;35.99;17.33
7986;BME280;4038;42.612;23.066;2023-04-30T17:48:20;92783.81;;;36.57;17.20
7986;BME280;4038;42.612;23.066;2023-04-30T17:50:45;92781.13;;;35.32;17.63
7986;BME280;4038;42.612;23.066;2023-04-30T17:53:11;92790.38;;;34.41;18.27
7986;BME280;4038;42.612;23.066;2023-04-30T17:55:36;92790.47;;;33.62;19.03
7986;BME280;4038;42.612;23.066;2023-04-30T17:58:02;92788.66;;;30.64;21.78
7986;BME280;4038;42.612;23.066;2023-04-30T18:00:28;92790.69;;;30.93;21.65
7986;BME280;4038;42.612;23.066;2023-04-30T18:02:54;92797.00;;;31.70;20.96
7986;BME280;4038;42.612;23.066;2023-04-30T18:05:19;92797.47;;;30.27;22.25
7986;BME280;4038;42.612;23.066;2023-04-30T18:07:45;92805.56;;;30.78;21.62
7986;BME280;4038;42.612;23.066;2023-04-30T18:10:11;92812.09;;;31.59;20.81
7986;BME280;4038;42.612;23.066;2023-04-30T18:12:37;92814.00;;;32.19;20.21
7986;BME280;4038;42.612;23.066;2023-04-30T18:15:03;92817.84;;;32.97;20.08
7986;BME280;4038;42.612;23.066;2023-04-30T18:17:30;92817.66;;;33.48;19.31
7986;BME280;4038;42.612;23.066;2023-04-30T18:19:56;92823.16;;;34.42;18.11
7986;BME280;4038;42.612;23.066;2023-04-30T18:22:21;92834.19;;;34.32;18.49
7986;BME280;4038;42.612;23.066;2023-04-30T18:24:47;92849.34;;;33.40;19.13
7986;BME280;4038;42.612;23.066;2023-04-30T18:27:12;92837.81;;;33.74;19.06
7986;BME280;4038;42.612;23.066;2023-04-30T18:29:38;92855.69;;;34.37;18.34
7986;BME280;4038;42.612;23.066;2023-04-30T18:32:09;92853.88;;;32.74;19.88
7986;BME280;4038;42.612;23.066;2023-04-30T18:34:42;92868.22;;;33.89;19.59
7986;BME280;4038;42.612;23.066;2023-04-30T18:37:07;92868.22;;;33.89;19.05
7986;BME280;4038;42.612;23.066;2023-04-30T18:39:36;92870.97;;;34.26;18.96
7986;BME280;4038;42.612;23.066;2023-04-30T18:42:02;92874.91;;;34.37;18.54
7986;BME280;4038;42.612;23.066;2023-04-30T18:44:30;92855.75;;;32.01;20.49
7986;BME280;4038;42.612;23.066;2023-04-30T18:46:56;92873.66;;;32.21;20.84
7986;BME280;4038;42.612;23.066;2023-04-30T18:49:25;92869.03;;;33.34;19.69
7986;BME280;4038;42.612;23.066;2023-04-30T18:51:50;92873.47;;;33.39;19.56
7986;BME280;4038;42.612;23.066;2023-04-30T18:54:18;92878.53;;;33.05;19.68
7986;BME280;4038;42.612;23.066;2023-04-30T18:56:48;92888.31;;;32.15;21.06
7986;BME280;4038;42.612;23.066;2023-04-30T18:59:22;92903.53;;;30.55;22.40
7986;BME280;4038;42.612;23.066;2023-04-30T19:01:47;92902.41;;;30.33;22.60
7986;BME280;4038;42.612;23.066;2023-04-30T19:04:20;92888.84;;;32.12;21.09
7986;BME280;4038;42.612;23.066;2023-04-30T19:06:45;92902.34;;;31.80;21.17
7986;BME280;4038;42.612;23.066;2023-04-30T19:12:09;92904.81;;;32.70;20.54
7986;BME280;4038;42.612;23.066;2023-04-30T19:14:46;92910.31;;;34.12;19.78